createdAt,value
2022-10-23T00:01:47.086Z,88.99
2022-10-23T00:04:19.239Z,88.94
2022-10-23T00:06:48.951Z,89.68
2022-10-23T00:09:20.717Z,89.55
2022-10-23T00:11:50.845Z,89.21
2022-10-23T00:14:23.638Z,88.69
2022-10-23T00:16:52.601Z,88.21
2022-10-23T00:19:20.998Z,88.04
2022-10-23T00:21:49.566Z,87.23
2022-10-23T00:24:17.820Z,86.81
2022-10-23T00:26:46.131Z,86.40
2022-10-23T00:29:14.493Z,85.93
2022-10-23T00:31:44.256Z,85.73
2022-10-23T00:34:12.634Z,85.55
2022-10-23T00:36:42.231Z,85.22
2022-10-23T00:39:10.699Z,85.05
2022-10-23T00:41:39.040Z,84.61
2022-10-23T00:44:11.208Z,84.92
2022-10-23T00:46:40.595Z,85.07
2022-10-23T00:51:49.302Z,86.25
2022-10-23T00:54:24.839Z,86.83
2022-10-23T00:57:01.194Z,87.27
2022-10-23T00:59:30.632Z,88.09
2022-10-23T01:02:00.410Z,88.36
2022-10-23T01:04:31.332Z,88.61
2022-10-23T01:07:10.726Z,88.25
2022-10-23T01:09:44.674Z,88.46
2022-10-23T01:12:22.816Z,88.10
2022-10-23T01:15:02.921Z,88.22
2022-10-23T01:17:40.872Z,87.87
2022-10-23T01:20:32.630Z,87.70
2022-10-23T01:23:33.198Z,88.04
2022-10-23T01:26:22.816Z,88.44
2022-10-23T01:28:57.983Z,89.01
2022-10-23T01:31:37.968Z,90.62
2022-10-23T01:34:15.859Z,92.52
2022-10-23T01:36:50.218Z,93.22
2022-10-23T01:39:24.184Z,93.30
2022-10-23T01:41:56.563Z,94.47
2022-10-23T01:44:36.882Z,95.14
2022-10-23T01:47:09.747Z,95.13
2022-10-23T01:49:54.051Z,95.45
2022-10-23T01:52:23.351Z,94.92
2022-10-23T01:54:56.971Z,94.26
2022-10-23T01:57:29.161Z,93.70
2022-10-23T02:00:03.465Z,93.02
2022-10-23T02:02:34.159Z,93.25
2022-10-23T02:05:09.166Z,92.90
2022-10-23T02:07:39.273Z,92.15
2022-10-23T02:10:10.557Z,91.73
2022-10-23T02:12:49.093Z,90.96
2022-10-23T02:15:27.634Z,90.73
2022-10-23T02:18:07.439Z,90.85
2022-10-23T02:20:41.994Z,91.77
2022-10-23T02:23:21.533Z,93.14
2022-10-23T02:25:55.722Z,94.53
2022-10-23T02:28:28.959Z,96.48
2022-10-23T02:31:04.449Z,97.68
2022-10-23T02:33:35.278Z,97.96
2022-10-23T02:36:04.129Z,98.21
2022-10-23T02:38:36.672Z,98.70
2022-10-23T02:41:19.274Z,98.61
2022-10-23T02:43:58.718Z,98.31
2022-10-23T02:46:39.722Z,98.83
2022-10-23T02:49:16.007Z,98.79
2022-10-23T02:51:55.895Z,99.15
2022-10-23T02:54:45.591Z,98.87
2022-10-23T02:57:24.022Z,98.16
2022-10-23T03:00:05.801Z,97.07
2022-10-23T03:02:41.171Z,96.24
2022-10-23T03:05:15.299Z,95.26
2022-10-23T03:07:44.195Z,95.52
2022-10-23T03:10:12.839Z,95.54
2022-10-23T03:12:41.478Z,94.76
2022-10-23T03:15:12.428Z,94.20
2022-10-23T03:17:43.275Z,93.67
2022-10-23T03:20:12.542Z,93.66
2022-10-23T03:22:41.314Z,93.09
2022-10-23T03:25:10.832Z,92.94
2022-10-23T03:27:39.112Z,92.89
2022-10-23T03:30:12.071Z,92.77
2022-10-23T03:32:43.302Z,92.78
2022-10-23T03:35:11.798Z,92.80
2022-10-23T03:37:40.246Z,92.73
2022-10-23T03:40:10.762Z,92.78
2022-10-23T03:42:39.103Z,92.67
2022-10-23T03:45:08.378Z,92.16
2022-10-23T03:47:41.338Z,91.84
2022-10-23T03:50:13.653Z,91.72
2022-10-23T03:52:42.676Z,91.43
2022-10-23T03:55:13.905Z,91.36
2022-10-23T03:57:42.192Z,91.14
2022-10-23T04:00:12.774Z,90.62
2022-10-23T04:02:48.988Z,90.45
2022-10-23T04:05:19.322Z,90.65
2022-10-23T04:07:55.627Z,92.46
2022-10-23T04:10:24.021Z,94.33
2022-10-23T04:12:52.405Z,95.11
2022-10-23T04:15:20.785Z,94.98
2022-10-23T04:17:49.118Z,95.31
2022-10-23T04:20:19.326Z,95.35
2022-10-23T04:22:47.664Z,95.21
2022-10-23T04:25:16.595Z,95.13
2022-10-23T04:27:45.164Z,95.16
2022-10-23T04:30:14.557Z,94.79
2022-10-23T04:32:42.883Z,94.43
2022-10-23T04:35:11.186Z,94.13
2022-10-23T04:37:43.780Z,93.73
2022-10-23T04:40:12.569Z,93.36
2022-10-23T04:42:41.164Z,92.94
2022-10-23T04:45:10.798Z,92.50
2022-10-23T04:47:39.647Z,92.49
2022-10-23T04:50:09.019Z,92.52
2022-10-23T04:52:58.421Z,92.55
2022-10-23T04:55:50.804Z,93.47
2022-10-23T04:58:26.226Z,93.08
2022-10-23T05:00:58.043Z,92.51
2022-10-23T05:03:28.226Z,93.16
2022-10-23T05:05:57.997Z,94.07
2022-10-23T05:08:30.757Z,94.08
2022-10-23T05:11:25.771Z,94.44
2022-10-23T05:13:54.087Z,95.42
2022-10-23T05:16:36.331Z,96.66
2022-10-23T05:19:06.735Z,98.85
2022-10-23T05:21:37.403Z,100.00
2022-10-23T05:24:09.908Z,100.00
2022-10-23T05:26:38.191Z,100.00
2022-10-23T05:29:09.083Z,100.00
2022-10-23T05:31:40.534Z,100.00
2022-10-23T05:34:16.999Z,100.00
2022-10-23T05:36:46.479Z,100.00
2022-10-23T05:39:17.997Z,100.00
2022-10-23T05:41:47.119Z,100.00
2022-10-23T05:44:21.348Z,100.00
2022-10-23T05:46:49.637Z,100.00
2022-10-23T05:49:36.674Z,100.00
2022-10-23T05:52:25.062Z,100.00
2022-10-23T05:55:13.630Z,100.00
2022-10-23T05:57:45.095Z,100.00
2022-10-23T06:00:16.642Z,100.00
2022-10-23T06:02:51.478Z,100.00
2022-10-23T06:05:32.555Z,100.00
2022-10-23T06:08:17.244Z,100.00
2022-10-23T06:10:47.043Z,100.00
2022-10-23T06:13:15.346Z,100.00
2022-10-23T06:15:43.757Z,100.00
2022-10-23T06:18:18.011Z,100.00
2022-10-23T06:20:57.170Z,100.00
2022-10-23T06:23:27.693Z,100.00
2022-10-23T06:26:12.473Z,100.00
2022-10-23T06:28:54.400Z,100.00
2022-10-23T06:31:26.776Z,100.00
2022-10-23T06:33:56.965Z,100.00
2022-10-23T06:36:26.350Z,100.00
2022-10-23T06:41:57.639Z,100.00
2022-10-23T06:44:44.292Z,100.00
2022-10-23T06:47:14.352Z,100.00
2022-10-23T06:50:03.017Z,100.00
2022-10-23T06:52:46.343Z,100.00
2022-10-23T06:55:18.207Z,100.00
2022-10-23T06:57:48.746Z,100.00
2022-10-23T07:00:17.443Z,100.00
2022-10-23T07:02:54.282Z,100.00
2022-10-23T07:05:23.163Z,100.00
2022-10-23T07:07:51.468Z,100.00
2022-10-23T07:10:26.401Z,100.00
2022-10-23T07:13:01.436Z,100.00
2022-10-23T07:15:39.120Z,100.00
2022-10-23T07:18:14.409Z,100.00
2022-10-23T07:21:01.444Z,100.00
2022-10-23T07:23:31.584Z,100.00
2022-10-23T07:26:06.328Z,100.00
2022-10-23T07:28:37.759Z,100.00
2022-10-23T07:31:06.599Z,100.00
2022-10-23T07:33:55.014Z,100.00
2022-10-23T07:36:23.531Z,100.00
2022-10-23T07:38:52.707Z,100.00
2022-10-23T07:41:22.245Z,100.00
2022-10-23T07:43:51.899Z,100.00
2022-10-23T07:46:20.330Z,100.00
2022-10-23T07:48:49.267Z,100.00
2022-10-23T07:51:18.573Z,100.00
2022-10-23T07:53:50.623Z,100.00
2022-10-23T07:56:39.366Z,100.00
2022-10-23T07:59:19.051Z,100.00
2022-10-23T08:01:55.684Z,100.00
2022-10-23T08:04:28.392Z,100.00
2022-10-23T08:07:03.095Z,100.00
2022-10-23T08:09:38.126Z,100.00
2022-10-23T08:12:07.074Z,100.00
2022-10-23T08:14:36.749Z,100.00
2022-10-23T08:17:05.723Z,100.00
2022-10-23T08:19:57.080Z,100.00
2022-10-23T08:22:28.735Z,100.00
2022-10-23T08:24:57.163Z,100.00
2022-10-23T08:27:26.380Z,100.00
2022-10-23T08:29:56.030Z,100.00
2022-10-23T08:32:24.330Z,100.00
2022-10-23T08:35:00.220Z,100.00
2022-10-23T08:37:31.724Z,100.00
2022-10-23T08:40:00.293Z,100.00
2022-10-23T08:42:55.646Z,100.00
2022-10-23T08:45:32.773Z,100.00
2022-10-23T08:48:15.323Z,100.00
2022-10-23T08:51:09.252Z,100.00
2022-10-23T08:53:46.266Z,100.00
2022-10-23T08:56:22.120Z,100.00
2022-10-23T08:58:55.578Z,100.00
2022-10-23T09:01:39.062Z,100.00
2022-10-23T09:04:07.811Z,100.00
2022-10-23T09:06:40.912Z,100.00
2022-10-23T09:09:43.942Z,100.00
2022-10-23T09:12:16.734Z,100.00
2022-10-23T09:15:05.845Z,100.00
2022-10-23T09:17:39.087Z,100.00
2022-10-23T09:20:18.060Z,100.00
2022-10-23T09:22:47.493Z,100.00
2022-10-23T09:25:22.231Z,100.00
2022-10-23T09:27:56.115Z,100.00
2022-10-23T09:30:36.751Z,100.00
2022-10-23T09:33:18.590Z,100.00
2022-10-23T09:35:59.621Z,100.00
2022-10-23T09:38:31.743Z,100.00
2022-10-23T09:41:04.674Z,100.00
2022-10-23T09:43:33.247Z,100.00
2022-10-23T09:46:07.301Z,100.00
2022-10-23T09:48:42.166Z,100.00
2022-10-23T09:51:20.866Z,100.00
2022-10-23T09:53:52.954Z,100.00
2022-10-23T09:56:31.795Z,100.00
2022-10-23T09:59:02.605Z,100.00
2022-10-23T10:01:33.720Z,100.00
2022-10-23T10:04:39.376Z,100.00
2022-10-23T10:07:20.038Z,100.00
2022-10-23T10:09:48.439Z,100.00
2022-10-23T10:12:41.498Z,100.00
2022-10-23T10:15:24.232Z,100.00
2022-10-23T10:18:04.422Z,100.00
2022-10-23T10:21:09.699Z,100.00
2022-10-23T10:23:50.261Z,100.00
2022-10-23T10:26:35.453Z,100.00
2022-10-23T10:29:29.890Z,100.00
2022-10-23T10:32:14.823Z,100.00
2022-10-23T10:34:51.180Z,100.00
2022-10-23T10:37:32.538Z,100.00
2022-10-23T10:40:10.742Z,100.00
2022-10-23T10:43:03.119Z,100.00
2022-10-23T10:45:35.323Z,100.00
2022-10-23T10:48:28.426Z,100.00
2022-10-23T10:51:25.354Z,100.00
2022-10-23T10:54:23.217Z,100.00
2022-10-23T10:56:51.611Z,100.00
2022-10-23T10:59:25.883Z,100.00
2022-10-23T11:01:59.788Z,100.00
2022-10-23T11:04:36.532Z,100.00
2022-10-23T11:07:13.280Z,100.00
2022-10-23T11:09:44.356Z,100.00
2022-10-23T11:12:20.644Z,100.00
2022-10-23T11:14:50.142Z,99.67
2022-10-23T11:17:26.282Z,98.91
2022-10-23T11:20:02.085Z,97.88
2022-10-23T11:22:37.264Z,96.38
2022-10-23T11:25:53.294Z,96.41
2022-10-23T11:28:42.448Z,96.49
2022-10-23T11:31:25.672Z,96.22
2022-10-23T11:34:37.529Z,95.35
2022-10-23T11:37:09.000Z,94.28
2022-10-23T11:39:40.320Z,93.90
2022-10-23T11:42:31.805Z,93.97
2022-10-23T11:45:00.159Z,93.73
2022-10-23T11:47:39.533Z,93.65
2022-10-23T11:50:27.709Z,92.44
2022-10-23T11:53:14.845Z,92.26
2022-10-23T11:56:01.639Z,92.52
2022-10-23T11:58:44.398Z,91.26
2022-10-23T12:01:31.326Z,91.97
2022-10-23T12:04:03.997Z,91.44
2022-10-23T12:06:40.115Z,90.96
2022-10-23T12:09:24.581Z,91.33
2022-10-23T12:12:18.984Z,91.85
2022-10-23T12:14:51.385Z,91.04
2022-10-23T12:17:36.978Z,91.33
2022-10-23T12:20:25.792Z,90.75
2022-10-23T12:23:20.151Z,90.57
2022-10-23T12:26:07.777Z,91.36
2022-10-23T12:28:41.975Z,91.08
2022-10-23T12:31:29.926Z,90.97
2022-10-23T12:34:10.304Z,90.60
2022-10-23T12:37:03.580Z,90.66
2022-10-23T12:39:33.833Z,90.76
2022-10-23T12:42:02.347Z,89.80
2022-10-23T12:44:31.262Z,89.99
2022-10-23T12:47:04.514Z,90.08
2022-10-23T12:49:35.426Z,89.89
2022-10-23T12:52:07.112Z,88.61
2022-10-23T12:54:41.445Z,88.70
2022-10-23T12:57:22.399Z,88.94
2022-10-23T12:59:52.603Z,89.94
2022-10-23T13:02:29.407Z,89.80
2022-10-23T13:05:01.441Z,89.10
2022-10-23T13:07:37.306Z,89.54
2022-10-23T13:10:08.804Z,88.71
2022-10-23T13:12:51.972Z,88.81
2022-10-23T13:15:22.263Z,89.01
2022-10-23T13:18:05.403Z,89.64
2022-10-23T13:20:36.707Z,89.29
2022-10-23T13:23:13.289Z,88.48
2022-10-23T13:25:41.975Z,88.44
2022-10-23T13:28:29.282Z,88.36
2022-10-23T13:31:08.841Z,88.52
2022-10-23T13:33:43.406Z,88.57
2022-10-23T13:36:24.394Z,88.39
2022-10-23T13:39:04.583Z,88.95
2022-10-23T13:41:39.262Z,87.03
2022-10-23T13:44:08.148Z,88.45
2022-10-23T13:46:36.481Z,87.77
2022-10-23T13:49:06.187Z,86.51
2022-10-23T13:51:42.564Z,87.86
2022-10-23T13:54:16.930Z,87.84
2022-10-23T13:56:45.493Z,87.72
2022-10-23T13:59:14.437Z,86.89
2022-10-23T14:01:45.340Z,86.99
2022-10-23T14:04:16.660Z,87.02
2022-10-23T14:06:45.245Z,86.83
2022-10-23T14:09:16.287Z,86.13
2022-10-23T14:11:45.902Z,86.59
2022-10-23T14:14:14.435Z,86.32
2022-10-23T14:16:42.825Z,85.76
2022-10-23T14:19:12.387Z,85.99
2022-10-23T14:21:44.630Z,85.94
2022-10-23T14:24:12.947Z,85.79
2022-10-23T14:26:43.120Z,86.05
2022-10-23T14:29:17.776Z,86.05
2022-10-23T14:31:49.907Z,85.78
2022-10-23T14:34:18.754Z,86.02
2022-10-23T14:36:50.486Z,85.77
2022-10-23T14:39:25.188Z,85.28
2022-10-23T14:41:53.599Z,85.86
2022-10-23T14:44:21.987Z,85.66
2022-10-23T14:46:50.367Z,86.10
2022-10-23T14:49:18.733Z,85.62
2022-10-23T14:51:48.374Z,85.50
2022-10-23T14:54:16.920Z,85.98
2022-10-23T14:56:45.299Z,85.84
2022-10-23T14:59:15.127Z,86.13
2022-10-23T15:01:48.388Z,86.03
2022-10-23T15:04:17.702Z,86.24
2022-10-23T15:06:47.357Z,86.27
2022-10-23T15:09:16.187Z,85.98
2022-10-23T15:11:44.463Z,86.03
2022-10-23T15:14:13.611Z,85.65
2022-10-23T15:16:42.341Z,85.96
2022-10-23T15:19:15.238Z,85.75
2022-10-23T15:21:49.355Z,86.29
2022-10-23T15:24:20.646Z,86.39
2022-10-23T15:26:50.133Z,86.23
2022-10-23T15:29:19.463Z,86.09
2022-10-23T15:31:56.998Z,86.16
2022-10-23T15:34:28.096Z,85.93
2022-10-23T15:36:59.266Z,86.23
2022-10-23T15:39:33.623Z,85.81
2022-10-23T15:42:03.964Z,85.90
2022-10-23T15:44:34.048Z,86.17
2022-10-23T15:47:02.603Z,85.94
2022-10-23T15:49:31.129Z,85.99
2022-10-23T15:52:02.262Z,86.00
2022-10-23T15:54:32.829Z,85.84
2022-10-23T15:57:02.231Z,85.97
2022-10-23T15:59:32.488Z,86.34
2022-10-23T16:02:00.941Z,86.00
2022-10-23T16:04:29.647Z,85.80
2022-10-23T16:06:58.029Z,85.66
2022-10-23T16:09:27.594Z,85.36
2022-10-23T16:11:56.110Z,85.26
2022-10-23T16:14:24.666Z,84.89
2022-10-23T16:16:52.975Z,85.03
2022-10-23T16:19:21.242Z,84.86
2022-10-23T16:21:49.569Z,84.63
2022-10-23T16:24:17.959Z,84.85
2022-10-23T16:26:53.014Z,85.06
2022-10-23T16:29:22.074Z,84.71
2022-10-23T16:31:50.553Z,84.71
2022-10-23T16:34:19.086Z,84.81
2022-10-23T16:36:47.877Z,84.71
2022-10-23T16:39:33.775Z,85.13
2022-10-23T16:42:21.784Z,85.27
2022-10-23T16:45:09.932Z,86.00
2022-10-23T16:47:38.390Z,85.97
2022-10-23T16:50:07.579Z,86.17
2022-10-23T16:52:36.402Z,85.97
2022-10-23T16:55:05.011Z,85.89
2022-10-23T16:57:36.414Z,85.97
2022-10-23T17:00:05.821Z,86.04
2022-10-23T17:02:34.590Z,86.36
2022-10-23T17:05:02.950Z,86.21
2022-10-23T17:07:31.153Z,86.56
2022-10-23T17:09:59.455Z,86.38
2022-10-23T17:12:27.911Z,86.67
2022-10-23T17:14:57.599Z,86.58
2022-10-23T17:17:25.909Z,86.78
2022-10-23T17:19:54.319Z,86.81
2022-10-23T17:22:22.546Z,86.84
2022-10-23T17:24:53.111Z,86.91
2022-10-23T17:27:22.502Z,86.76
2022-10-23T17:29:50.864Z,86.99
2022-10-23T17:34:49.983Z,86.63
2022-10-23T17:37:18.242Z,86.71
2022-10-23T17:39:46.605Z,86.51
2022-10-23T17:42:15.021Z,86.65
2022-10-23T17:44:43.227Z,86.59
2022-10-23T17:47:11.495Z,86.51
2022-10-23T17:49:42.901Z,86.47
2022-10-23T17:52:14.964Z,86.25
2022-10-23T17:54:43.264Z,86.30
2022-10-23T17:57:11.660Z,86.53
2022-10-23T17:59:39.999Z,86.74
2022-10-23T18:02:08.568Z,87.25
2022-10-23T18:04:36.982Z,87.50
2022-10-23T18:07:06.626Z,87.26
2022-10-23T18:09:34.951Z,87.71
2022-10-23T18:12:03.307Z,87.97
2022-10-23T18:14:34.299Z,88.06
2022-10-23T18:17:05.050Z,88.36
2022-10-23T18:19:33.365Z,88.05
2022-10-23T18:22:01.888Z,89.15
2022-10-23T18:24:32.016Z,89.57
2022-10-23T18:27:00.453Z,89.96
2022-10-23T18:29:28.895Z,89.70
2022-10-23T18:31:57.197Z,90.93
2022-10-23T18:34:26.723Z,92.11
2022-10-23T18:36:56.614Z,91.81
2022-10-23T18:39:26.529Z,92.14
2022-10-23T18:41:58.465Z,92.93
2022-10-23T18:44:29.258Z,93.50
2022-10-23T18:46:59.179Z,94.30
2022-10-23T18:49:28.137Z,95.29
2022-10-23T18:51:58.294Z,93.84
2022-10-23T18:54:26.707Z,94.27
2022-10-23T18:56:56.457Z,92.87
2022-10-23T18:59:24.821Z,94.19
2022-10-23T19:01:53.480Z,92.82
2022-10-23T19:04:21.951Z,90.59
2022-10-23T19:06:51.440Z,88.89
2022-10-23T19:09:20.283Z,87.80
2022-10-23T19:11:49.050Z,86.28
2022-10-23T19:14:18.949Z,83.60
2022-10-23T19:16:59.667Z,83.92
2022-10-23T19:19:30.643Z,83.45
2022-10-23T19:21:59.065Z,81.49
2022-10-23T19:24:40.501Z,82.83
2022-10-23T19:27:09.998Z,81.22
2022-10-23T19:29:44.544Z,81.20
2022-10-23T19:32:13.286Z,81.60
2022-10-23T19:34:42.060Z,82.71
2022-10-23T19:37:10.492Z,83.46
2022-10-23T19:39:38.861Z,83.88
2022-10-23T19:42:08.639Z,84.38
2022-10-23T19:44:37.171Z,84.97
2022-10-23T19:47:06.906Z,85.59
2022-10-23T19:49:35.207Z,85.78
2022-10-23T19:52:03.631Z,87.66
2022-10-23T19:54:32.019Z,88.16
2022-10-23T19:57:02.387Z,88.55
2022-10-23T19:59:30.852Z,86.29
2022-10-23T20:01:59.462Z,86.25
2022-10-23T20:04:29.849Z,87.48
2022-10-23T20:06:58.605Z,88.09
2022-10-23T20:09:26.995Z,87.88
2022-10-23T20:11:55.679Z,87.12
2022-10-23T20:14:24.020Z,86.81
2022-10-23T20:16:55.863Z,87.08
2022-10-23T20:19:25.083Z,87.15
2022-10-23T20:21:54.758Z,87.06
2022-10-23T20:24:23.584Z,86.20
2022-10-23T20:26:55.689Z,86.32
2022-10-23T20:29:25.708Z,87.05
2022-10-23T20:31:55.246Z,87.28
2022-10-23T20:34:23.645Z,88.17
2022-10-23T20:36:52.002Z,88.94
2022-10-23T20:39:26.520Z,89.43
2022-10-23T20:41:55.507Z,90.05
2022-10-23T20:44:25.373Z,90.33
2022-10-23T20:46:53.787Z,90.96
2022-10-23T20:49:22.951Z,92.58
2022-10-23T20:51:55.092Z,93.91
2022-10-23T20:54:27.558Z,95.24
2022-10-23T20:56:57.487Z,95.87
2022-10-23T20:59:26.289Z,96.23
2022-10-23T21:01:57.241Z,96.51
2022-10-23T21:04:28.813Z,96.70
2022-10-23T21:07:14.352Z,97.25
2022-10-23T21:09:44.135Z,97.64
2022-10-23T21:12:12.427Z,97.51
2022-10-23T21:14:41.058Z,96.98
2022-10-23T21:17:12.062Z,96.59
2022-10-23T21:19:40.483Z,96.21
2022-10-23T21:22:08.870Z,95.62
2022-10-23T21:24:37.382Z,95.44
2022-10-23T21:27:07.103Z,95.56
2022-10-23T21:29:35.698Z,95.26
2022-10-23T21:32:04.268Z,94.78
2022-10-23T21:34:32.726Z,94.65
2022-10-23T21:37:17.650Z,94.00
2022-10-23T21:39:47.450Z,94.30
2022-10-23T21:42:17.139Z,94.50
2022-10-23T21:44:45.783Z,94.72
2022-10-23T21:47:14.637Z,95.05
2022-10-23T21:49:43.033Z,95.24
2022-10-23T21:52:16.292Z,95.44
2022-10-23T21:54:47.557Z,95.84
2022-10-23T21:57:17.210Z,96.00
2022-10-23T21:59:45.914Z,96.34
2022-10-23T22:02:14.292Z,96.22
2022-10-23T22:04:43.028Z,95.91
2022-10-23T22:07:14.869Z,95.99
2022-10-23T22:09:43.679Z,96.24
2022-10-23T22:12:13.052Z,96.26
2022-10-23T22:14:43.303Z,95.87
2022-10-23T22:17:11.629Z,95.00
2022-10-23T22:19:39.920Z,94.13
2022-10-23T22:22:08.255Z,92.59
2022-10-23T22:24:37.370Z,91.33
2022-10-23T22:27:05.762Z,90.17
2022-10-23T22:29:34.219Z,89.09
2022-10-23T22:32:03.842Z,87.84
2022-10-23T22:34:52.703Z,86.95
2022-10-23T22:37:20.900Z,86.07
2022-10-23T22:39:52.784Z,85.67
2022-10-23T22:42:21.165Z,85.07
2022-10-23T22:44:49.445Z,84.39
2022-10-23T22:47:19.060Z,83.61
2022-10-23T22:49:50.116Z,82.99
2022-10-23T22:52:18.495Z,82.15
2022-10-23T22:54:46.909Z,82.21
2022-10-23T22:57:15.329Z,82.19
2022-10-23T22:59:43.688Z,82.29
2022-10-23T23:02:12.090Z,82.29
2022-10-23T23:04:41.806Z,81.92
2022-10-23T23:07:13.433Z,82.03
2022-10-23T23:09:43.782Z,82.44
2022-10-23T23:12:14.879Z,82.66
2022-10-23T23:14:43.727Z,83.26
2022-10-23T23:17:12.780Z,85.17
2022-10-23T23:19:42.474Z,86.86
2022-10-23T23:22:10.928Z,87.37
2022-10-23T23:24:39.235Z,88.12
2022-10-23T23:27:07.511Z,88.88
2022-10-23T23:29:35.872Z,89.88
2022-10-23T23:32:06.080Z,90.92
2022-10-23T23:34:34.445Z,92.12
2022-10-23T23:37:04.119Z,93.24
2022-10-23T23:39:32.422Z,94.08
2022-10-23T23:42:00.719Z,94.60
2022-10-23T23:44:28.941Z,94.87
2022-10-23T23:46:57.269Z,95.18
2022-10-23T23:49:25.773Z,95.95
2022-10-23T23:51:54.075Z,96.43
2022-10-23T23:54:23.801Z,96.82
2022-10-23T23:56:52.065Z,96.79
2022-10-23T23:59:20.345Z,96.96
